Aérodrome :
LOGIN :

S'inscrire | Disclaimer

   EN    FR    IT 

 










Légende :    VFR   VFR Marginal   IFR   IFR Intensif   IFR Très Intensif
Visi : 
Plafond : 
>= 8 km
>= 3000ft
5 à 8 km
1000 à 3000 ft
1500m à 5 km
500 à 1000 ft
800 à 1500m
200 à 500 ft
< 800m
< 200 ft
Symboles :   Orages  Brouillard  Fortes neiges  Fortes précipitations  Vent > 20 kt
SIGMETs :   Divers  Orages  Givrage  Turbulence  Onde Orograph.  Cendres Volcan.







- Altitude de l'aérodrome : 1959 ft
- Code IATA : HOQ


EDQM - Hof Plauen

DERNIER METAR :
  • 231150Z VRB03KT 9000 OVC009 06/03 Q1016

METARs EXPIRÉS :
  • 231120Z 10003KT 070V130 9000 OVC008 06/03 Q1016
  • 231050Z VRB02KT 9000 OVC007 05/03 Q1016
  • 231020Z 00000KT 9999 OVC007 05/03 Q1016
  • 230950Z 15003KT 9999 OVC007 05/03 Q1016
  • 230920Z VRB03KT 9000 BKN007 OVC013 05/03 Q1016

TAF TAF EDQM
Valide du 23 à 12h jusqu'au 23 à 21h UTC


231100Z 2312/2321 VRB02KT 9999 OVC007
TEMPO 2312/2316 SCT007 BKN015
BECMG 2316/2318 4000 BR
TEMPO 2318/2321 2500 BR OVC004
Pas de NOTAMs connus pour ce terrain.



MET'MAP, la Météo Aéronautique d'un coup d'oeil ! - Copyright ORBIFLY Décembre 2007 - Disclaimer

ORBIFLY MET'MAP TEAM :

Programmation & Développement : Alexandra Zaïnal
Conception & Développement : Baudouin d'Aumeries
Co-Programmation & Développement : Marc-Olivier Méhu
Soutien technique & logistique : Manuel Goepfert

Contact : metmap@orbifly.com




SOURCES & CREDITS :

   NOAA